createdAt,value
2019-01-03T00:01:39.578Z,3.32
2019-01-03T00:04:35.030Z,3.33
2019-01-03T00:07:25.817Z,3.29
2019-01-03T00:10:15.398Z,3.34
2019-01-03T00:13:06.102Z,3.29
2019-01-03T00:16:12.249Z,3.25
2019-01-03T00:19:04.202Z,3.14
2019-01-03T00:21:53.794Z,3.07
2019-01-03T00:24:43.586Z,2.95
2019-01-03T00:27:41.726Z,2.84
2019-01-03T00:30:31.712Z,2.77
2019-01-03T00:33:25.614Z,2.70
2019-01-03T00:36:15.263Z,2.64
2019-01-03T00:39:06.386Z,2.59
2019-01-03T00:42:06.560Z,2.56
2019-01-03T00:45:05.062Z,2.54
2019-01-03T00:48:00.010Z,2.54
2019-01-03T00:50:53.959Z,2.51
2019-01-03T00:54:00.347Z,2.50
2019-01-03T00:56:50.061Z,2.49
2019-01-03T00:59:40.881Z,2.47
2019-01-03T01:02:34.202Z,2.33
2019-01-03T01:05:25.209Z,2.39
2019-01-03T01:08:25.328Z,2.38
2019-01-03T01:11:09.910Z,2.42
2019-01-03T01:14:06.777Z,2.41
2019-01-03T01:16:57.740Z,2.39
2019-01-03T01:23:20.015Z,2.83
2019-01-03T01:26:05.482Z,2.88
2019-01-03T01:28:58.085Z,2.79
2019-01-03T01:36:11.261Z,2.73
2019-01-03T01:39:02.215Z,2.84
2019-01-03T01:41:51.462Z,2.72
2019-01-03T01:44:41.139Z,2.38
2019-01-03T01:47:30.923Z,2.34
2019-01-03T01:50:31.309Z,2.31
2019-01-03T01:53:21.223Z,2.26
2019-01-03T01:56:16.152Z,2.28
2019-01-03T01:59:07.827Z,2.31
2019-01-03T02:01:58.458Z,2.42
2019-01-03T02:05:01.421Z,2.48
2019-01-03T02:08:01.707Z,2.66
2019-01-03T02:10:53.703Z,2.70
2019-01-03T02:13:56.896Z,2.45
2019-01-03T02:16:53.656Z,2.43
2019-01-03T02:19:59.700Z,2.56
2019-01-03T02:23:02.315Z,2.68
2019-01-03T02:26:02.038Z,3.18
2019-01-03T02:29:00.595Z,3.36
2019-01-03T02:31:54.558Z,3.23
2019-01-03T02:34:45.270Z,3.08
2019-01-03T02:37:39.288Z,3.14
2019-01-03T02:40:29.909Z,2.94
2019-01-03T02:43:20.145Z,2.87
2019-01-03T02:46:13.382Z,2.83
2019-01-03T02:49:22.160Z,2.78
2019-01-03T02:52:03.694Z,2.63
2019-01-03T02:55:09.954Z,2.53
2019-01-03T02:58:03.737Z,2.56
2019-01-03T03:01:02.347Z,2.49
2019-01-03T03:04:02.433Z,2.47
2019-01-03T03:06:53.230Z,2.63
2019-01-03T03:09:42.774Z,2.65
2019-01-03T03:12:33.477Z,2.91
2019-01-03T03:15:40.756Z,2.69
2019-01-03T03:18:33.606Z,2.81
2019-01-03T03:21:07.762Z,2.99
2019-01-03T03:23:54.097Z,2.95
2019-01-03T03:26:56.689Z,3.00
2019-01-03T03:29:46.104Z,3.03
2019-01-03T03:32:37.174Z,2.92
2019-01-03T03:35:26.332Z,2.79
2019-01-03T03:38:17.076Z,2.92
2019-01-03T03:41:06.851Z,2.99
2019-01-03T03:43:58.087Z,4.00
2019-01-03T03:46:49.014Z,4.79
2019-01-03T03:49:48.969Z,4.51
2019-01-03T03:52:44.281Z,4.21
2019-01-03T03:55:25.678Z,4.03
2019-01-03T03:58:18.153Z,3.91
2019-01-03T04:01:07.595Z,3.79
2019-01-03T04:03:57.208Z,3.77
2019-01-03T04:06:46.918Z,3.72
2019-01-03T04:09:36.622Z,3.73
2019-01-03T04:12:33.258Z,3.63
2019-01-03T04:15:23.200Z,3.42
2019-01-03T04:18:16.872Z,3.33
2019-01-03T04:21:16.739Z,3.22
2019-01-03T04:24:10.472Z,3.23
2019-01-03T04:27:03.033Z,3.24
2019-01-03T04:29:53.784Z,3.09
2019-01-03T04:32:44.484Z,3.04
2019-01-03T04:35:33.851Z,3.18
2019-01-03T04:38:20.067Z,3.36
2019-01-03T04:41:09.672Z,3.47
2019-01-03T04:44:19.045Z,3.43
2019-01-03T04:47:08.608Z,3.32
2019-01-03T04:50:05.557Z,3.13
2019-01-03T04:52:55.873Z,3.03
2019-01-03T04:55:45.259Z,2.91
2019-01-03T04:58:36.684Z,2.82
2019-01-03T05:02:18.248Z,2.74
2019-01-03T05:05:27.529Z,2.95
2019-01-03T05:08:18.850Z,2.91
2019-01-03T05:11:27.704Z,2.95
2019-01-03T05:14:18.448Z,2.94
2019-01-03T05:17:12.120Z,2.85
2019-01-03T05:20:21.490Z,2.93
2019-01-03T05:23:24.765Z,2.88
2019-01-03T05:26:14.378Z,2.64
2019-01-03T05:29:17.520Z,2.46
2019-01-03T05:32:08.379Z,2.48
2019-01-03T05:35:17.757Z,2.35
2019-01-03T05:38:17.718Z,2.34
2019-01-03T05:41:07.594Z,2.34
2019-01-03T05:43:57.591Z,2.34
2019-01-03T05:46:57.601Z,2.30
2019-01-03T05:49:58.805Z,2.33
2019-01-03T05:52:52.753Z,2.29
2019-01-03T05:55:43.682Z,2.24
2019-01-03T05:58:28.396Z,2.23
2019-01-03T06:01:31.467Z,2.24
2019-01-03T06:04:22.572Z,2.22
2019-01-03T06:07:19.189Z,2.24
2019-01-03T06:10:22.301Z,2.26
2019-01-03T06:13:28.422Z,2.16
2019-01-03T06:16:19.158Z,1.99
2019-01-03T06:19:12.886Z,1.88
2019-01-03T06:22:18.718Z,1.72
2019-01-03T06:25:15.477Z,1.61
2019-01-03T06:28:12.409Z,1.55
2019-01-03T06:31:09.581Z,1.64
2019-01-03T06:34:04.316Z,1.63
2019-01-03T06:36:53.698Z,1.61
2019-01-03T06:39:50.634Z,1.53
2019-01-03T06:42:41.434Z,1.43
2019-01-03T06:45:30.708Z,1.35
2019-01-03T06:48:20.456Z,1.28
2019-01-03T06:51:29.469Z,1.29
2019-01-03T06:54:18.983Z,1.32
2019-01-03T06:57:16.002Z,1.36
2019-01-03T07:00:12.549Z,1.42
2019-01-03T07:03:02.081Z,1.26
2019-01-03T07:05:51.891Z,1.15
2019-01-03T07:08:41.443Z,1.03
2019-01-03T07:11:31.126Z,1.01
2019-01-03T07:14:28.049Z,0.94
2019-01-03T07:17:38.693Z,0.94
2019-01-03T07:20:29.225Z,0.93
2019-01-03T07:23:35.293Z,0.93
2019-01-03T07:26:41.065Z,0.95
2019-01-03T07:29:41.510Z,0.98
2019-01-03T07:32:31.059Z,0.96
2019-01-03T07:35:37.172Z,1.02
2019-01-03T07:38:40.226Z,1.02
2019-01-03T07:41:36.466Z,1.03
2019-01-03T07:44:29.201Z,1.07
2019-01-03T07:47:20.043Z,0.98
2019-01-03T07:50:12.736Z,0.83
2019-01-03T07:53:21.797Z,0.85
2019-01-03T07:56:15.767Z,0.86
2019-01-03T07:59:23.073Z,0.81
2019-01-03T08:02:12.431Z,0.81
2019-01-03T08:05:06.318Z,0.83
2019-01-03T08:08:15.289Z,0.79
2019-01-03T08:11:04.829Z,0.77
2019-01-03T08:14:06.115Z,0.73
2019-01-03T08:17:06.525Z,0.72
2019-01-03T08:19:55.963Z,0.77
2019-01-03T08:22:46.957Z,0.79
2019-01-03T08:25:37.648Z,0.79
2019-01-03T08:28:28.892Z,0.78
2019-01-03T08:31:22.626Z,0.73
2019-01-03T08:34:12.449Z,0.64
2019-01-03T08:37:04.788Z,0.77
2019-01-03T08:39:54.421Z,0.85
2019-01-03T08:42:45.178Z,0.95
2019-01-03T08:45:41.910Z,1.20
2019-01-03T08:48:46.470Z,1.20
2019-01-03T08:51:49.411Z,1.32
2019-01-03T08:54:49.174Z,1.47
2019-01-03T08:57:40.183Z,1.59
2019-01-03T09:00:29.858Z,1.70
2019-01-03T09:03:26.673Z,1.88
2019-01-03T09:06:20.204Z,1.96
2019-01-03T09:09:09.977Z,2.13
2019-01-03T09:12:10.292Z,2.24
2019-01-03T09:15:02.848Z,2.37
2019-01-03T09:17:52.188Z,2.53
2019-01-03T09:20:40.685Z,2.67
2019-01-03T09:23:40.962Z,2.87
2019-01-03T09:26:32.012Z,3.10
2019-01-03T09:29:22.811Z,3.89
2019-01-03T09:32:13.229Z,6.26
2019-01-03T09:34:57.989Z,8.83
2019-01-03T09:38:04.341Z,11.68
2019-01-03T09:41:00.377Z,12.09
2019-01-03T09:43:49.740Z,15.48
2019-01-03T09:46:21.616Z,15.44
2019-01-03T09:48:53.580Z,16.41
2019-01-03T09:51:25.587Z,19.33
2019-01-03T09:53:57.506Z,19.80
2019-01-03T09:56:29.433Z,19.20
2019-01-03T09:59:01.282Z,20.35
2019-01-03T10:01:33.549Z,21.14
2019-01-03T10:04:05.515Z,19.50
2019-01-03T10:06:37.401Z,18.96
2019-01-03T10:09:09.657Z,18.45
2019-01-03T10:11:41.537Z,20.01
2019-01-03T10:14:13.803Z,20.12
2019-01-03T10:16:45.681Z,18.43
2019-01-03T10:19:17.530Z,19.08
2019-01-03T10:21:49.790Z,19.84
2019-01-03T10:24:21.713Z,20.56
2019-01-03T10:26:53.816Z,20.62
2019-01-03T10:29:25.701Z,19.92
2019-01-03T10:31:57.542Z,20.58
2019-01-03T10:34:29.488Z,22.67
2019-01-03T10:37:01.447Z,21.06
2019-01-03T10:39:33.348Z,22.34
2019-01-03T10:42:05.260Z,22.95
2019-01-03T10:44:37.216Z,23.04
2019-01-03T10:47:09.115Z,24.14
2019-01-03T10:49:41.011Z,24.98
2019-01-03T10:52:12.982Z,26.98
2019-01-03T10:54:44.879Z,25.92
2019-01-03T10:57:18.473Z,26.55
2019-01-03T10:59:50.992Z,26.75
2019-01-03T11:02:23.007Z,26.63
2019-01-03T11:04:54.921Z,26.79
2019-01-03T11:07:26.879Z,27.22
2019-01-03T11:09:58.763Z,25.83
2019-01-03T11:12:30.726Z,25.48
2019-01-03T11:15:02.628Z,25.02
2019-01-03T11:17:34.541Z,25.77
2019-01-03T11:20:07.048Z,25.15
2019-01-03T11:22:38.943Z,23.73
2019-01-03T11:25:13.689Z,23.96
2019-01-03T11:27:45.675Z,23.41
2019-01-03T11:30:17.824Z,23.72
2019-01-03T11:32:49.751Z,23.21
2019-01-03T11:35:21.640Z,22.22
2019-01-03T11:37:58.606Z,22.46
2019-01-03T11:40:30.702Z,21.38
2019-01-03T11:43:02.634Z,21.90
2019-01-03T11:45:34.548Z,21.21
2019-01-03T11:48:06.460Z,20.18
2019-01-03T11:50:43.858Z,20.52
2019-01-03T11:53:15.924Z,20.27
2019-01-03T11:55:47.842Z,20.90
2019-01-03T11:58:19.828Z,20.55
2019-01-03T12:00:51.778Z,20.84
2019-01-03T12:03:23.662Z,20.93
2019-01-03T12:05:56.562Z,20.73
2019-01-03T12:08:28.398Z,22.64
2019-01-03T12:11:05.484Z,22.50
2019-01-03T12:13:37.317Z,21.80
2019-01-03T12:16:09.292Z,20.88
2019-01-03T12:18:41.141Z,21.33
2019-01-03T12:21:13.041Z,21.34
2019-01-03T12:23:44.889Z,20.49
2019-01-03T12:26:16.776Z,19.82
2019-01-03T12:28:48.631Z,20.26
2019-01-03T12:31:21.711Z,19.75
2019-01-03T12:33:53.695Z,20.02
2019-01-03T12:36:25.567Z,20.05
2019-01-03T12:39:00.538Z,20.19
2019-01-03T12:41:33.687Z,20.03
2019-01-03T12:44:05.650Z,20.52
2019-01-03T12:46:37.546Z,21.38
2019-01-03T12:49:11.048Z,19.97
2019-01-03T12:51:42.919Z,19.23
2019-01-03T12:54:15.408Z,18.84
2019-01-03T12:56:48.257Z,19.50
2019-01-03T12:59:20.342Z,19.79
2019-01-03T13:01:52.192Z,20.22
2019-01-03T13:04:27.704Z,20.16
2019-01-03T13:06:59.540Z,20.31
2019-01-03T13:09:31.685Z,21.78
2019-01-03T13:12:03.557Z,21.14
2019-01-03T13:14:35.432Z,21.24
2019-01-03T13:17:07.822Z,21.21
2019-01-03T13:19:39.700Z,20.50
2019-01-03T13:22:11.570Z,19.46
2019-01-03T13:24:43.391Z,18.09
2019-01-03T13:27:15.297Z,17.24
2019-01-03T13:29:47.214Z,16.23
2019-01-03T13:32:19.119Z,15.64
2019-01-03T13:34:51.435Z,15.32
2019-01-03T13:37:25.194Z,15.30
2019-01-03T13:39:57.477Z,15.33
2019-01-03T13:42:29.594Z,15.18
2019-01-03T13:45:01.471Z,15.17
2019-01-03T13:47:34.479Z,14.95
2019-01-03T13:50:11.223Z,15.12
2019-01-03T13:52:43.288Z,15.34
2019-01-03T13:55:15.221Z,15.08
2019-01-03T13:57:47.200Z,15.02
2019-01-03T14:00:19.372Z,14.84
2019-01-03T14:02:51.233Z,14.68
2019-01-03T14:05:24.487Z,14.92
2019-01-03T14:07:56.473Z,15.07
2019-01-03T14:10:28.631Z,15.05
2019-01-03T14:13:00.507Z,15.00
2019-01-03T14:15:32.450Z,15.00
2019-01-03T14:18:04.707Z,14.99
2019-01-03T14:20:36.625Z,14.91
2019-01-03T14:23:08.559Z,14.75
2019-01-03T14:25:41.340Z,14.61
2019-01-03T14:28:13.311Z,14.56
2019-01-03T14:30:45.439Z,14.73
2019-01-03T14:33:17.372Z,14.68
2019-01-03T14:35:49.337Z,14.57
2019-01-03T14:38:22.270Z,14.60
2019-01-03T14:40:54.149Z,14.51
2019-01-03T14:43:26.103Z,14.56
2019-01-03T14:45:58.130Z,14.58
2019-01-03T14:48:31.772Z,14.51
2019-01-03T14:51:03.647Z,14.49
2019-01-03T14:53:35.789Z,14.59
2019-01-03T14:56:07.678Z,14.54
2019-01-03T14:58:39.656Z,14.43
2019-01-03T15:01:11.705Z,14.40
2019-01-03T15:03:43.640Z,14.43
2019-01-03T15:06:18.011Z,14.49
2019-01-03T15:08:49.958Z,14.51
2019-01-03T15:11:21.830Z,14.51
2019-01-03T15:13:53.752Z,14.47
2019-01-03T15:16:25.632Z,14.41
2019-01-03T15:18:57.575Z,14.48
2019-01-03T15:21:29.449Z,14.46
2019-01-03T15:24:01.691Z,14.42
2019-01-03T15:26:34.241Z,14.45
2019-01-03T15:29:06.189Z,14.45
2019-01-03T15:31:38.095Z,14.35
2019-01-03T15:34:11.654Z,14.38
2019-01-03T15:36:43.630Z,14.40
2019-01-03T15:39:15.868Z,14.31
2019-01-03T15:41:47.805Z,14.28
2019-01-03T15:44:19.734Z,14.11
2019-01-03T15:46:51.650Z,14.04
2019-01-03T15:49:23.519Z,14.08
2019-01-03T15:51:55.866Z,14.09
2019-01-03T15:54:28.099Z,14.01
2019-01-03T15:57:00.180Z,14.01
2019-01-03T15:59:32.032Z,14.01
2019-01-03T16:02:04.996Z,13.95
2019-01-03T16:04:36.857Z,13.83
2019-01-03T16:07:08.773Z,13.92
2019-01-03T16:09:41.098Z,13.82
2019-01-03T16:12:12.987Z,13.67
2019-01-03T16:14:44.927Z,13.47
2019-01-03T16:17:16.774Z,13.62
2019-01-03T16:19:48.655Z,13.45
2019-01-03T16:22:20.737Z,13.30
2019-01-03T16:24:54.505Z,13.22
2019-01-03T16:27:28.699Z,13.21
2019-01-03T16:30:00.583Z,13.02
2019-01-03T16:32:32.475Z,12.86
2019-01-03T16:35:04.432Z,12.80
2019-01-03T16:37:36.326Z,12.71
2019-01-03T16:40:09.682Z,12.66
2019-01-03T16:42:43.509Z,12.49
2019-01-03T16:45:18.728Z,12.36
2019-01-03T16:47:50.772Z,12.28
2019-01-03T16:50:22.754Z,12.18
2019-01-03T16:52:54.812Z,12.01
2019-01-03T16:55:27.021Z,11.75
2019-01-03T16:57:58.935Z,11.64
2019-01-03T17:00:31.930Z,11.49
2019-01-03T17:03:04.384Z,11.18
2019-01-03T17:05:36.389Z,11.23
2019-01-03T17:08:08.280Z,11.56
2019-01-03T17:10:40.194Z,11.19
2019-01-03T17:13:14.489Z,10.78
2019-01-03T17:15:46.385Z,10.49
2019-01-03T17:18:18.254Z,10.42
2019-01-03T17:20:50.162Z,10.27
2019-01-03T17:23:22.010Z,10.06
2019-01-03T17:25:53.882Z,9.91
2019-01-03T17:28:25.767Z,9.71
2019-01-03T17:30:57.694Z,9.46
2019-01-03T17:33:31.303Z,9.58
2019-01-03T17:36:03.231Z,9.47
2019-01-03T17:38:35.178Z,9.40
2019-01-03T17:41:07.062Z,9.15
2019-01-03T17:43:40.376Z,8.89
2019-01-03T17:46:12.840Z,8.59
2019-01-03T17:48:44.749Z,8.39
2019-01-03T17:51:16.696Z,8.33
2019-01-03T17:53:48.600Z,8.28
2019-01-03T17:56:20.577Z,8.10
2019-01-03T17:58:52.464Z,8.04
2019-01-03T18:01:24.343Z,7.86
2019-01-03T18:03:59.638Z,7.72
2019-01-03T18:06:31.528Z,7.61
2019-01-03T18:09:03.651Z,7.64
2019-01-03T18:11:35.549Z,7.52
2019-01-03T18:14:07.453Z,7.48
2019-01-03T18:16:40.252Z,7.43
2019-01-03T18:19:14.532Z,7.26
2019-01-03T18:21:46.414Z,7.15
2019-01-03T18:24:18.392Z,7.10
2019-01-03T18:26:50.274Z,7.02
2019-01-03T18:29:22.666Z,7.01
2019-01-03T18:31:54.567Z,6.74
2019-01-03T18:34:26.516Z,6.63
2019-01-03T18:36:58.378Z,6.53
2019-01-03T18:39:30.250Z,6.39
2019-01-03T18:42:02.174Z,6.30
2019-01-03T18:44:34.359Z,6.19
2019-01-03T18:47:06.261Z,6.27
2019-01-03T18:49:38.139Z,6.27
2019-01-03T18:52:10.371Z,6.24
2019-01-03T18:54:42.421Z,6.17
2019-01-03T18:57:14.317Z,6.22
2019-01-03T18:59:47.853Z,6.06
2019-01-03T19:02:19.735Z,5.98
2019-01-03T19:04:53.214Z,5.84
2019-01-03T19:07:25.105Z,5.83
2019-01-03T19:09:56.959Z,5.73
2019-01-03T19:12:28.847Z,5.58
2019-01-03T19:15:00.825Z,5.54
2019-01-03T19:17:33.939Z,5.45
2019-01-03T19:20:08.053Z,5.37
2019-01-03T19:22:43.045Z,5.26
2019-01-03T19:25:17.260Z,5.22
2019-01-03T19:27:52.079Z,5.21
2019-01-03T19:30:24.441Z,5.07
2019-01-03T19:32:56.318Z,4.97
2019-01-03T19:35:28.194Z,4.97
2019-01-03T19:38:00.688Z,5.13
2019-01-03T19:40:32.556Z,5.17
2019-01-03T19:43:06.115Z,5.16
2019-01-03T19:45:38.095Z,5.22
2019-01-03T19:48:09.940Z,5.21
2019-01-03T19:50:42.050Z,5.11
2019-01-03T19:53:13.971Z,5.17
2019-01-03T19:55:45.906Z,5.07
2019-01-03T19:58:18.628Z,4.91
2019-01-03T20:00:50.576Z,4.69
2019-01-03T20:03:22.429Z,4.53
2019-01-03T20:05:54.448Z,4.42
2019-01-03T20:08:26.932Z,4.36
2019-01-03T20:10:58.860Z,4.30
2019-01-03T20:13:30.748Z,4.22
2019-01-03T20:16:02.653Z,4.24
2019-01-03T20:18:36.229Z,4.23
2019-01-03T20:21:08.095Z,4.22
2019-01-03T20:23:39.995Z,4.30
2019-01-03T20:26:11.885Z,4.24
2019-01-03T20:28:43.726Z,4.03
2019-01-03T20:31:16.241Z,3.90
2019-01-03T20:33:48.123Z,3.70
2019-01-03T20:36:20.055Z,3.71
2019-01-03T20:38:51.927Z,3.83
2019-01-03T20:41:26.178Z,3.88
2019-01-03T20:43:59.551Z,3.86
2019-01-03T20:46:31.488Z,3.87
2019-01-03T20:49:03.380Z,3.87
2019-01-03T20:51:35.649Z,3.93
2019-01-03T20:54:07.592Z,3.92
2019-01-03T20:56:39.510Z,3.92
2019-01-03T20:59:11.436Z,3.92
2019-01-03T21:01:43.353Z,3.88
2019-01-03T21:04:15.440Z,3.83
2019-01-03T21:06:47.418Z,3.72
2019-01-03T21:09:19.336Z,3.58
2019-01-03T21:11:51.292Z,3.48
2019-01-03T21:14:23.342Z,3.41
2019-01-03T21:16:55.271Z,3.36
2019-01-03T21:19:27.118Z,3.34
2019-01-03T21:21:59.080Z,3.23
2019-01-03T21:24:30.944Z,3.12
2019-01-03T21:27:02.810Z,3.08
2019-01-03T21:29:34.811Z,2.99
2019-01-03T21:32:06.722Z,2.92
2019-01-03T21:34:40.277Z,3.04
2019-01-03T21:37:12.123Z,3.16
2019-01-03T21:39:45.016Z,3.19
2019-01-03T21:42:17.033Z,3.18
2019-01-03T21:44:50.851Z,3.20
2019-01-03T21:47:22.874Z,3.26
2019-01-03T21:49:59.451Z,3.22
2019-01-03T21:52:32.093Z,3.23
2019-01-03T21:55:04.438Z,3.21
2019-01-03T21:57:38.046Z,3.15
2019-01-03T22:00:14.785Z,3.03
2019-01-03T22:02:46.700Z,2.96
2019-01-03T22:05:18.753Z,2.80
2019-01-03T22:07:51.311Z,2.81
2019-01-03T22:10:23.202Z,2.75
2019-01-03T22:12:55.069Z,2.76
2019-01-03T22:15:26.962Z,2.75
2019-01-03T22:17:59.054Z,2.71
2019-01-03T22:20:32.477Z,2.73
2019-01-03T22:23:04.540Z,2.65
2019-01-03T22:25:36.413Z,2.51
2019-01-03T22:28:08.539Z,2.42
2019-01-03T22:30:41.038Z,2.44
2019-01-03T22:33:12.977Z,2.38
2019-01-03T22:35:45.168Z,2.39
2019-01-03T22:38:17.005Z,2.37
2019-01-03T22:40:49.309Z,2.51
2019-01-03T22:43:21.214Z,2.40
2019-01-03T22:45:53.053Z,2.39
2019-01-03T22:48:25.059Z,2.33
2019-01-03T22:50:59.437Z,2.27
2019-01-03T22:53:31.401Z,2.27
2019-01-03T22:56:03.283Z,2.41
2019-01-03T22:58:39.463Z,2.31
2019-01-03T23:01:11.427Z,2.23
2019-01-03T23:03:43.349Z,2.20
2019-01-03T23:06:21.396Z,2.23
2019-01-03T23:08:53.316Z,2.12
2019-01-03T23:11:25.378Z,2.15
2019-01-03T23:13:57.281Z,2.13
2019-01-03T23:16:29.122Z,2.15
2019-01-03T23:19:01.052Z,2.18
2019-01-03T23:21:32.882Z,2.10
2019-01-03T23:24:05.135Z,1.98
2019-01-03T23:26:44.213Z,1.90
2019-01-03T23:29:16.273Z,1.84
2019-01-03T23:31:48.859Z,1.88
2019-01-03T23:34:21.490Z,1.94
2019-01-03T23:36:53.378Z,2.00
2019-01-03T23:39:25.743Z,1.91
2019-01-03T23:42:02.639Z,1.84
2019-01-03T23:44:34.538Z,1.76
2019-01-03T23:47:07.749Z,1.77
2019-01-03T23:49:39.855Z,1.76
2019-01-03T23:52:11.738Z,1.75
2019-01-03T23:54:45.485Z,1.75
2019-01-03T23:57:17.372Z,1.71
2019-01-03T23:59:49.253Z,1.75
